createdAt,value
2023-03-22T00:00:40.202Z,100590.66
2023-03-22T00:03:11.451Z,100590.75
2023-03-22T00:05:40.042Z,100591.56
2023-03-22T00:08:11.396Z,100590.63
2023-03-22T00:10:39.922Z,100587.19
2023-03-22T00:13:09.246Z,100586.50
2023-03-22T00:15:39.552Z,100532.28
2023-03-22T00:18:09.258Z,100573.53
2023-03-22T00:20:37.654Z,100554.78
2023-03-22T00:23:09.280Z,100562.59
2023-03-22T00:25:36.987Z,100559.94
2023-03-22T00:28:04.944Z,100524.63
2023-03-22T00:30:36.741Z,100546.31
2023-03-22T00:33:04.921Z,100552.06
2023-03-22T00:35:32.825Z,100544.59
2023-03-22T00:38:15.951Z,100538.59
2023-03-22T00:40:45.408Z,100512.31
2023-03-22T00:43:15.741Z,100519.91
2023-03-22T00:45:46.173Z,100513.94
2023-03-22T00:48:13.929Z,100516.59
2023-03-22T00:50:44.068Z,100512.25
2023-03-22T00:53:13.809Z,100507.00
2023-03-22T00:55:41.501Z,100506.19
2023-03-22T00:58:12.444Z,100491.47
2023-03-22T01:00:42.606Z,100482.47
2023-03-22T01:03:10.681Z,100479.91
2023-03-22T01:05:40.945Z,100483.97
2023-03-22T01:08:10.873Z,100480.69
2023-03-22T01:10:39.740Z,100415.56
2023-03-22T01:13:13.706Z,100465.16
2023-03-22T01:15:42.344Z,100463.53
2023-03-22T01:18:10.314Z,100461.81
2023-03-22T01:20:40.275Z,100458.34
2023-03-22T01:23:08.124Z,100450.69
2023-03-22T01:25:35.909Z,100438.91
2023-03-22T01:28:08.753Z,100433.88
2023-03-22T01:30:40.544Z,100373.28
2023-03-22T01:33:12.698Z,100423.53
2023-03-22T01:35:40.516Z,100424.41
2023-03-22T01:38:08.332Z,100411.63
2023-03-22T01:40:40.416Z,100408.44
2023-03-22T01:43:14.429Z,100409.06
2023-03-22T01:45:49.665Z,100401.44
2023-03-22T01:48:22.222Z,100394.56
2023-03-22T01:51:01.665Z,100392.03
2023-03-22T01:53:33.567Z,100361.06
2023-03-22T01:56:06.198Z,100369.34
2023-03-22T01:58:37.565Z,100375.06
2023-03-22T02:01:12.900Z,100369.06
2023-03-22T02:03:48.118Z,100364.78
2023-03-22T02:06:20.108Z,100348.56
2023-03-22T02:08:47.885Z,100343.22
2023-03-22T02:11:24.219Z,100333.22
2023-03-22T02:14:13.875Z,100329.84
2023-03-22T02:16:55.422Z,100325.47
2023-03-22T02:19:51.982Z,100323.09
2023-03-22T02:22:50.182Z,100307.06
2023-03-22T02:25:50.238Z,100308.47
2023-03-22T02:28:30.059Z,100305.72
2023-03-22T02:31:23.886Z,100295.78
2023-03-22T02:34:37.149Z,100295.00
2023-03-22T02:37:35.975Z,100294.06
2023-03-22T02:40:17.706Z,100282.97
2023-03-22T02:42:59.299Z,100280.41
2023-03-22T02:45:36.792Z,100272.03
2023-03-22T02:48:10.736Z,100272.75
2023-03-22T02:50:46.486Z,100266.88
2023-03-22T02:53:19.728Z,100263.50
2023-03-22T02:56:02.405Z,100265.91
2023-03-22T02:58:35.022Z,100258.16
2023-03-22T03:01:09.597Z,100251.56
2023-03-22T03:03:39.677Z,100243.69
2023-03-22T03:06:16.161Z,100246.34
2023-03-22T03:08:46.791Z,100232.72
2023-03-22T03:11:19.940Z,100239.31
2023-03-22T03:13:49.058Z,100233.22
2023-03-22T03:16:24.606Z,100189.59
2023-03-22T03:18:57.950Z,100221.34
2023-03-22T03:21:36.666Z,100225.72
2023-03-22T03:24:21.748Z,100217.09
2023-03-22T03:27:00.114Z,100209.59
2023-03-22T03:29:34.194Z,100201.03
2023-03-22T03:32:10.566Z,100195.88
2023-03-22T03:34:45.538Z,100188.16
2023-03-22T03:37:21.196Z,100184.44
2023-03-22T03:39:55.404Z,100179.44
2023-03-22T03:42:30.252Z,100176.06
2023-03-22T03:44:58.580Z,100169.28
2023-03-22T03:47:30.337Z,100168.28
2023-03-22T03:49:58.097Z,100167.34
2023-03-22T03:52:26.711Z,100169.84
2023-03-22T03:54:56.837Z,100161.47
2023-03-22T03:57:27.873Z,100154.41
2023-03-22T03:59:55.676Z,100149.13
2023-03-22T04:02:25.677Z,100154.22
2023-03-22T04:04:53.554Z,100142.22
2023-03-22T04:07:21.225Z,100139.72
2023-03-22T04:09:51.117Z,100130.38
2023-03-22T04:12:18.995Z,100134.50
2023-03-22T04:14:50.222Z,100124.41
2023-03-22T04:17:17.942Z,100116.53
2023-03-22T04:19:47.779Z,100119.03
2023-03-22T04:22:18.459Z,100117.41
2023-03-22T04:24:52.128Z,100112.25
2023-03-22T04:27:22.456Z,100103.69
2023-03-22T04:29:56.396Z,100102.88
2023-03-22T04:32:24.574Z,100095.97
2023-03-22T04:34:55.215Z,100026.06
2023-03-22T04:37:26.452Z,100076.41
2023-03-22T04:39:54.419Z,100083.84
2023-03-22T04:42:24.523Z,100082.81
2023-03-22T04:44:57.798Z,100078.63
2023-03-22T04:47:25.536Z,100076.03
2023-03-22T04:49:53.241Z,100068.31
2023-03-22T04:52:21.145Z,100064.81
2023-03-22T04:54:48.841Z,100060.63
2023-03-22T04:57:16.552Z,100021.81
2023-03-22T04:59:48.809Z,100055.88
2023-03-22T05:02:18.041Z,100058.84
2023-03-22T05:04:45.851Z,100053.38
2023-03-22T05:07:17.641Z,100051.47
2023-03-22T05:09:48.208Z,100046.28
2023-03-22T05:12:16.102Z,100006.13
2023-03-22T05:14:50.855Z,100046.41
2023-03-22T05:17:22.192Z,100040.84
2023-03-22T05:19:49.866Z,100036.56
2023-03-22T05:22:21.031Z,100031.38
2023-03-22T05:24:51.352Z,100029.91
2023-03-22T05:27:33.205Z,100027.50
2023-03-22T05:30:01.049Z,100013.44
2023-03-22T05:32:31.608Z,100014.78
2023-03-22T05:35:05.773Z,100016.56
2023-03-22T05:37:35.683Z,100001.38
2023-03-22T05:40:05.294Z,99999.50
2023-03-22T05:42:34.814Z,99995.97
2023-03-22T05:45:05.210Z,99994.13
2023-03-22T05:47:39.601Z,99996.53
2023-03-22T05:50:09.165Z,99983.53
2023-03-22T05:52:37.085Z,99942.16
2023-03-22T05:55:09.826Z,99980.81
2023-03-22T05:57:37.569Z,99979.53
2023-03-22T06:00:13.042Z,99976.19
2023-03-22T06:02:44.571Z,99982.19
2023-03-22T06:05:16.211Z,99979.38
2023-03-22T06:07:46.290Z,99975.19
2023-03-22T06:10:16.725Z,99972.47
2023-03-22T06:12:46.161Z,99962.84
2023-03-22T06:15:16.326Z,99964.06
2023-03-22T06:17:45.443Z,99951.63
2023-03-22T06:20:17.484Z,99960.53
2023-03-22T06:22:45.307Z,99954.25
2023-03-22T06:25:13.027Z,99960.59
2023-03-22T06:27:42.942Z,99961.81
2023-03-22T06:30:13.196Z,99956.59
2023-03-22T06:32:41.045Z,99955.41
2023-03-22T06:35:10.821Z,99958.03
2023-03-22T06:37:40.838Z,99950.16
2023-03-22T06:40:09.875Z,99950.53
2023-03-22T06:42:39.967Z,99946.63
2023-03-22T06:45:10.763Z,99904.38
2023-03-22T06:47:38.921Z,99944.75
2023-03-22T06:50:07.590Z,99943.09
2023-03-22T06:52:38.932Z,99907.06
2023-03-22T06:55:07.161Z,99939.34
2023-03-22T06:57:36.904Z,99929.59
2023-03-22T07:00:08.383Z,99926.25
2023-03-22T07:02:36.379Z,99927.66
2023-03-22T07:05:06.200Z,99925.16
2023-03-22T07:07:37.603Z,99929.31
2023-03-22T07:10:09.737Z,99931.56
2023-03-22T07:12:39.882Z,99931.63
2023-03-22T07:15:08.157Z,99918.50
2023-03-22T07:17:38.036Z,99915.25
2023-03-22T07:20:08.815Z,99908.06
2023-03-22T07:22:37.930Z,99912.88
2023-03-22T07:25:06.638Z,99913.00
2023-03-22T07:27:34.493Z,99905.41
2023-03-22T07:30:02.240Z,99915.19
2023-03-22T07:32:30.149Z,99922.75
2023-03-22T07:35:00.236Z,99921.75
2023-03-22T07:37:27.972Z,99911.41
2023-03-22T07:39:58.945Z,99900.28
2023-03-22T07:42:26.959Z,99907.22
2023-03-22T07:44:54.726Z,99910.06
2023-03-22T07:47:39.418Z,99916.06
2023-03-22T07:50:09.443Z,99902.47
2023-03-22T07:52:38.987Z,99904.19
2023-03-22T07:55:11.455Z,99897.59
2023-03-22T07:57:39.834Z,99870.50
2023-03-22T08:00:10.382Z,99887.47
2023-03-22T08:02:38.772Z,99890.41
2023-03-22T08:05:07.539Z,99855.06
2023-03-22T08:07:35.382Z,99881.56
2023-03-22T08:10:05.588Z,99881.72
2023-03-22T08:12:37.100Z,99873.03
2023-03-22T08:15:05.453Z,99877.69
2023-03-22T08:17:35.453Z,99881.63
2023-03-22T08:20:10.762Z,99873.34
2023-03-22T08:22:40.729Z,99867.38
2023-03-22T08:25:08.857Z,99874.84
2023-03-22T08:27:39.914Z,99868.50
2023-03-22T08:30:08.980Z,99872.53
2023-03-22T08:32:36.853Z,99864.38
2023-03-22T08:35:06.499Z,99859.63
2023-03-22T08:37:34.266Z,99857.84
2023-03-22T08:40:01.999Z,99853.13
2023-03-22T08:42:31.557Z,99849.97
2023-03-22T08:45:00.842Z,99846.16
2023-03-22T08:47:28.550Z,99850.53
2023-03-22T08:49:56.365Z,99838.66
2023-03-22T08:52:24.158Z,99833.28
2023-03-22T08:54:53.519Z,99837.13
2023-03-22T08:57:22.454Z,99848.72
2023-03-22T08:59:52.240Z,99844.63
2023-03-22T09:02:21.828Z,99858.09
2023-03-22T09:04:49.747Z,99847.38
2023-03-22T09:07:20.312Z,99856.16
2023-03-22T09:09:48.316Z,99842.75
2023-03-22T09:12:18.283Z,99842.63
2023-03-22T09:14:46.830Z,99828.16
2023-03-22T09:17:14.740Z,99826.38
2023-03-22T09:19:45.777Z,99823.59
2023-03-22T09:22:16.126Z,99831.97
2023-03-22T09:24:44.035Z,99829.03
2023-03-22T09:27:14.105Z,99824.41
2023-03-22T09:29:45.624Z,99833.50
2023-03-22T09:32:13.296Z,99831.75
2023-03-22T09:34:43.112Z,99824.16
2023-03-22T09:37:13.151Z,99818.22
2023-03-22T09:39:41.220Z,99812.19
2023-03-22T09:42:16.014Z,99810.38
2023-03-22T09:44:47.644Z,99799.56
2023-03-22T09:47:22.023Z,99796.66
2023-03-22T09:50:03.748Z,99796.06
2023-03-22T09:52:33.026Z,99796.25
2023-03-22T09:55:00.935Z,99793.69
2023-03-22T09:57:33.589Z,99793.50
2023-03-22T10:00:16.546Z,99773.50
2023-03-22T10:02:55.265Z,99758.59
2023-03-22T10:05:32.792Z,99759.63
2023-03-22T10:08:25.646Z,99770.63
2023-03-22T10:10:58.072Z,99757.91
2023-03-22T10:13:33.357Z,99765.94
2023-03-22T10:16:07.029Z,99744.72
2023-03-22T10:18:37.917Z,99762.78
2023-03-22T10:21:12.145Z,99762.41
2023-03-22T10:23:46.844Z,99769.84
2023-03-22T10:26:24.114Z,99764.59
2023-03-22T10:28:59.411Z,99773.50
2023-03-22T10:31:32.522Z,99775.81
2023-03-22T10:34:03.480Z,99767.31
2023-03-22T10:36:35.424Z,99760.50
2023-03-22T10:39:11.467Z,99762.09
2023-03-22T10:41:42.425Z,99764.00
2023-03-22T10:44:18.613Z,99757.75
2023-03-22T10:46:49.226Z,99753.38
2023-03-22T10:49:26.443Z,99762.47
2023-03-22T10:52:00.004Z,99756.28
2023-03-22T10:54:29.402Z,99733.50
2023-03-22T10:56:59.404Z,99765.31
2023-03-22T10:59:48.531Z,99762.72
2023-03-22T11:02:21.723Z,99754.94
2023-03-22T11:04:54.493Z,99753.91
2023-03-22T11:07:32.531Z,99754.56
2023-03-22T11:10:28.801Z,99755.84
2023-03-22T11:13:15.131Z,99745.41
2023-03-22T11:15:52.878Z,99747.16
2023-03-22T11:18:23.176Z,99738.41
2023-03-22T11:20:59.346Z,99740.25
2023-03-22T11:23:28.550Z,99736.56
2023-03-22T11:26:02.016Z,99697.25
2023-03-22T11:28:36.492Z,99737.59
2023-03-22T11:31:08.689Z,99734.63
2023-03-22T11:33:37.798Z,99730.66
2023-03-22T11:36:18.784Z,99723.22
2023-03-22T11:38:47.458Z,99713.53
2023-03-22T11:41:25.073Z,99711.50
2023-03-22T11:43:57.721Z,99718.97
2023-03-22T11:46:26.228Z,99720.34
2023-03-22T11:49:01.143Z,99691.97
2023-03-22T11:51:31.088Z,99704.25
2023-03-22T11:54:07.739Z,99713.25
2023-03-22T11:56:44.246Z,99707.81
2023-03-22T11:59:16.718Z,99707.88
2023-03-22T12:01:49.698Z,99700.78
2023-03-22T12:04:23.699Z,99704.47
2023-03-22T12:06:56.733Z,99704.34
2023-03-22T12:09:36.492Z,99700.31
2023-03-22T12:12:11.295Z,99695.78
2023-03-22T12:14:47.873Z,99688.22
2023-03-22T12:17:21.659Z,99690.91
2023-03-22T12:19:59.211Z,99685.91
2023-03-22T12:22:33.017Z,99686.03
2023-03-22T12:25:03.746Z,99681.13
2023-03-22T12:27:37.875Z,99680.56
2023-03-22T12:30:15.763Z,99682.84
2023-03-22T12:32:49.233Z,99670.38
2023-03-22T12:35:22.494Z,99663.28
2023-03-22T12:37:55.532Z,99678.03
2023-03-22T12:40:27.007Z,99659.38
2023-03-22T12:43:11.664Z,99673.00
2023-03-22T12:45:50.017Z,99655.72
2023-03-22T12:48:21.869Z,99667.63
2023-03-22T12:50:54.012Z,99659.88
2023-03-22T12:53:24.020Z,99655.66
2023-03-22T12:55:52.383Z,99654.53
2023-03-22T12:58:23.489Z,99650.22
2023-03-22T13:00:58.348Z,99647.72
2023-03-22T13:03:29.762Z,99646.19
2023-03-22T13:06:06.237Z,99639.75
2023-03-22T13:09:16.980Z,99643.66
2023-03-22T13:11:46.312Z,99645.44
2023-03-22T13:14:57.706Z,99637.19
2023-03-22T13:17:44.761Z,99634.59
2023-03-22T13:20:27.804Z,99624.44
2023-03-22T13:23:27.211Z,99610.53
2023-03-22T13:26:05.953Z,99604.34
2023-03-22T13:28:39.990Z,99612.22
2023-03-22T13:31:32.148Z,99610.03
2023-03-22T13:34:06.012Z,99606.22
2023-03-22T13:36:33.830Z,99600.44
2023-03-22T13:39:11.436Z,99597.53
2023-03-22T13:41:39.696Z,99562.69
2023-03-22T13:44:23.984Z,99581.47
2023-03-22T13:46:54.421Z,99591.41
2023-03-22T13:49:30.279Z,99586.44
2023-03-22T13:52:01.866Z,99583.09
2023-03-22T13:54:42.308Z,99581.75
2023-03-22T13:57:17.450Z,99573.88
2023-03-22T14:00:12.017Z,99581.84
2023-03-22T14:02:44.846Z,99578.03
2023-03-22T14:05:19.534Z,99568.28
2023-03-22T14:07:52.237Z,99575.22
2023-03-22T14:10:28.050Z,99530.50
2023-03-22T14:13:00.953Z,99573.16
2023-03-22T14:15:36.839Z,99565.47
2023-03-22T14:18:14.883Z,99558.97
2023-03-22T14:20:47.547Z,99552.03
